Finnhawk — OJNL — position and weather

sailwx.info

Track history (hours):
 
Tides and Currents Weather Stations Pressure Air Temp Water Temp Dewpoint Dewpoint Depression Visibility Wind Speed Wind Dir Waves Ship Positions

Finnhawk

Last reported at 2015-Mar-30 04:30 UTC. Time now 2015-Mar-30 12:57 UTC.
Position N 55°34' E 006°37'.

Length 163 m; draft 6.8 m.

Type: Ship. MMSI: 230007000.

Date/timePositionNaut miles runAvg speedWind from/ knotsBaromVisibWave heightAir tempDewpointWater temp
2015-Mar-30 04:30N 55°34' E 006°37'7918.6
2015-Mar-30 00:17N 54°26' E 005°27'1418.7
2015-Mar-29 23:33N 54°15' E 005°15'1817.6
2015-Mar-29 22:33N 53°58' E 005°05'2018.4
2015-Mar-29 21:27N 53°39' E 004°52'5117.7
2015-Mar-29 18:33N 52°53' E 004°16'6017.2
2015-Mar-29 15:03N 52°02' E 003°24'917.8
2015-Mar-29 14:33N 51°53' E 003°21'1413.5
2015-Mar-29 13:33N 51°39' E 003°20'1313.4
2015-Mar-29 12:33N 51°28' E 003°31'10 9.5
2015-Mar-29 11:33N 51°23' E 003°44'1211.9
2015-Mar-29 10:34N 51°23' E 004°03'1111.3
2015-Mar-29 09:33N 51°17' E 004°19'2 2.4
2015-Mar-29 08:33N 51°16' E 004°16'2 2.0
2015-Mar-29 07:31N 51°17' E 004°13'0 0.0
2015-Mar-29 06:31N 51°17' E 004°13'0 0.0
2015-Mar-29 05:31N 51°17' E 004°13'0 0.0
2015-Mar-29 04:28N 51°17' E 004°13'0 0.0
2015-Mar-29 03:31N 51°17' E 004°13'0 0.0
2015-Mar-29 02:31N 51°17' E 004°13'0 0.0
2015-Mar-29 01:28N 51°17' E 004°13'0 0.0
2015-Mar-29 00:31N 51°17' E 004°13'0 0.0
2015-Mar-28 23:28N 51°17' E 004°13'0 0.0
2015-Mar-28 22:28N 51°17' E 004°13'0 0.0
2015-Mar-28 21:28N 51°17' E 004°13'0 0.1
2015-Mar-28 20:33N 51°17' E 004°13'2 2.3
2015-Mar-28 19:34N 51°16' E 004°17'2 2.2
2015-Mar-28 18:34N 51°18' E 004°17'7 6.7
2015-Mar-28 17:33N 51°24' E 004°12'9 9.0
2015-Mar-28 16:33N 51°23' E 003°57'1111.0
2015-Mar-28 15:33N 51°26' E 003°40'1110.7
2015-Mar-28 14:33N 51°32' E 003°25'1612.7
2015-Mar-28 13:19N 51°46' E 003°14'8 9.4
2015-Mar-28 12:28N 51°53' E 003°18'1211.1
2015-Mar-28 11:22N 52°05' E 003°22'1312.4
2015-Mar-28 10:20N 52°17' E 003°31'1012.5
2015-Mar-28 09:32N 52°23' E 003°44'1212.0
2015-Mar-28 08:33N 52°25' E 004°03'1515.1
2015-Mar-28 07:33N 52°28' E 004°28'5 5.4
2015-Mar-28 06:33N 52°28' E 004°36'4 4.1
2015-Mar-28 05:34N 52°26' E 004°42'5 5.0
2015-Mar-28 04:33N 52°24' E 004°50'0 0.0
2015-Mar-28 03:32N 52°24' E 004°50'0 0.0
2015-Mar-28 02:32N 52°24' E 004°50'0 0.0
2015-Mar-28 01:32N 52°24' E 004°50'0 0.0
2015-Mar-28 00:29N 52°24' E 004°50'0 0.0
2015-Mar-27 23:32N 52°24' E 004°50'0 0.0
2015-Mar-27 22:32N 52°24' E 004°50'0 0.0
2015-Mar-27 21:32N 52°24' E 004°50'0 0.0
2015-Mar-27 20:33N 52°24' E 004°50'5 5.0
2015-Mar-27 19:34N 52°26' E 004°43'4 4.2
2015-Mar-27 18:33N 52°28' E 004°36'6 6.1
2015-Mar-27 17:33N 52°28' E 004°26'1514.8
2015-Mar-27 16:33N 52°28' E 004°02'7017.1
2015-Mar-27 12:27N 51°50' E 002°25'1618.4
2015-Mar-27 11:33N 51°41' E 002°03'1919.0
2015-Mar-27 10:34N 51°30' E 001°38'1414.2
2015-Mar-27 09:34N 51°29' E 001°16'1918.6
2015-Mar-27 08:33N 51°29' E 000°46'1615.7
2015-Mar-27 07:33N 51°27' E 000°21'1 0.5
2015-Mar-27 06:33N 51°27' E 000°21'0 0.0
2015-Mar-27 05:34N 51°27' E 000°21'0 0.0
2015-Mar-27 04:33N 51°27' E 000°21'0 0.0
2015-Mar-27 03:32N 51°27' E 000°21'0 0.0
2015-Mar-27 02:34N 51°27' E 000°21'0 0.0
2015-Mar-27 01:34N 51°27' E 000°21'0 0.0
2015-Mar-27 00:33N 51°27' E 000°21'0 0.0
2015-Mar-26 23:28N 51°27' E 000°21'0 0.0
2015-Mar-26 22:34N 51°27' E 000°21'0 0.0
2015-Mar-26 21:34N 51°27' E 000°21'0 0.0
2015-Mar-26 20:34N 51°27' E 000°21'0 0.0
2015-Mar-26 19:33N 51°27' E 000°21'1 0.7
2015-Mar-26 18:34N 51°27' E 000°20'5 5.0
2015-Mar-26 17:33N 51°29' E 000°28'1615.6
2015-Mar-26 16:34N 51°29' E 000°53'1716.9
2015-Mar-26 15:33N 51°29' E 001°20'1211.6
2015-Mar-26 14:33N 51°32' E 001°38'1515.4
2015-Mar-26 13:34N 51°47' E 001°43'1716.9
2015-Mar-26 12:34N 52°04' E 001°48'1717.1
2015-Mar-26 11:34N 52°20' E 001°53'2017.1
2015-Mar-26 10:24N 52°40' E 002°02'1315.1
2015-Mar-26 09:34N 52°50' E 001°49'1717.2
2015-Mar-26 08:34N 52°58' E 001°24'3916.4
2015-Mar-26 06:10N 53°23' E 000°34'1016.9
2015-Mar-26 05:33N 53°32' E 000°24'1212.4
2015-Mar-26 04:34N 53°36' E 000°04'9 9.0
2015-Mar-26 03:31N 53°38' W 000°11'0 0.4
2015-Mar-26 02:31N 53°38' W 000°12'0 0.0
2015-Mar-26 01:31N 53°38' W 000°12'0 0.0
2015-Mar-26 00:31N 53°38' W 000°12'0 0.0
2015-Mar-25 23:31N 53°38' W 000°12'0 0.4
2015-Mar-25 22:34N 53°38' W 000°11'2 2.1
2015-Mar-25 21:33N 53°38' W 000°08'1413.6
2015-Mar-25 20:34N 53°33' E 000°14'1514.9
2015-Mar-25 19:33N 53°43' E 000°33'37517.8
2015-Mar-24 22:33N 57°28' E 009°22'2718.0
2015-Mar-24 21:05N 57°42' E 010°05'917.9
2015-Mar-24 20:33N 57°45' E 010°22'1817.7
2015-Mar-24 19:33N 57°44' E 010°55'1918.9
2015-Mar-24 18:33N 57°31' E 011°20'1918.5
2015-Mar-24 17:33N 57°15' E 011°36'1919.5
2015-Mar-24 16:33N 56°56' E 011°47'1918.9
2015-Mar-24 15:33N 56°39' E 011°59'1818.4
2015-Mar-24 14:33N 56°22' E 012°13'1818.1
2015-Mar-24 13:33N 56°07' E 012°32'1515.0
2015-Mar-24 12:33N 55°54' E 012°44'1414.2
2015-Mar-24 11:33N 55°40' E 012°42'1111.5
2015-Mar-24 10:33N 55°28' E 012°43'1312.7
2015-Mar-24 09:33N 55°16' E 012°51'1817.9
2015-Mar-24 08:33N 55°15' E 013°22'1817.9
2015-Mar-24 07:33N 55°14' E 013°53'1716.9
2015-Mar-24 06:33N 55°17' E 014°22'1817.7
2015-Mar-24 05:34N 55°29' E 014°44'1817.9
2015-Mar-24 04:33N 55°39' E 015°11'11916.6
2015-Mar-23 21:25N 57°11' E 017°27'23315.6
2015-Mar-23 06:28N 59°37' E 023°16'1616.3
2015-Mar-23 05:29N 59°41' E 023°46'1516.4
2015-Mar-23 04:33N 59°45' E 024°15'5716.8
2015-Mar-23 01:10N 59°57' E 026°06'1016.5
2015-Mar-23 00:33N 59°60' E 026°25'11314.1
2015-Mar-22 16:33N 59°53' E 030°10'2 1.5
2015-Mar-22 15:28N 59°53' E 030°13'0 0.0
2015-Mar-22 14:31N 59°53' E 030°13'0 0.0
2015-Mar-22 13:31N 59°53' E 030°13'0 0.0
2015-Mar-22 12:31N 59°53' E 030°13'0 0.0
2015-Mar-22 11:31N 59°53' E 030°13'0 0.0
2015-Mar-22 10:31N 59°53' E 030°13'0 0.0
2015-Mar-22 09:31N 59°53' E 030°13'0 0.0
2015-Mar-22 08:31N 59°53' E 030°13'0 0.0
2015-Mar-22 07:31N 59°53' E 030°13'0 0.0
2015-Mar-22 06:28N 59°53' E 030°13'0 0.0
2015-Mar-22 05:31N 59°53' E 030°13'0 0.0
2015-Mar-22 04:33N 59°53' E 030°13'1 0.9
2015-Mar-22 03:34N 59°53' E 030°11'8814.7
2015-Mar-21 21:33N 60°14' E 027°19'1514.8
2015-Mar-21 20:34N 60°24' E 026°59'5 5.3
2015-Mar-21 19:33N 60°29' E 026°57'0 0.0
2015-Mar-21 18:18N 60°29' E 026°57'0 0.0
2015-Mar-21 17:33N 60°29' E 026°57'0 0.0
2015-Mar-21 16:33N 60°29' E 026°57'0 0.0
2015-Mar-21 15:33N 60°29' E 026°57'0 0.0
2015-Mar-21 14:33N 60°29' E 026°57'0 0.0
2015-Mar-21 13:33N 60°29' E 026°57'0 0.0
2015-Mar-21 12:33N 60°29' E 026°57'0 0.0
2015-Mar-21 11:33N 60°29' E 026°57'0 0.0
2015-Mar-21 10:33N 60°29' E 026°57'0 0.0
2015-Mar-21 09:33N 60°29' E 026°57'0 0.0
2015-Mar-21 08:33N 60°29' E 026°57'0 0.0
2015-Mar-21 07:33N 60°29' E 026°57'0 0.0
2015-Mar-21 06:24N 60°29' E 026°57'0 0.0
2015-Mar-21 05:33N 60°29' E 026°57'0 0.0
2015-Mar-21 04:33N 60°29' E 026°57'0 0.0
2015-Mar-21 03:33N 60°29' E 026°57'7 6.6
2015-Mar-21 02:33N 60°23' E 026°50'1615.8
2015-Mar-21 01:33N 60°14' E 026°25'3815.9
2015-Mar-20 23:09N 60°03' E 025°11'913.5
2015-Mar-20 22:30N 60°12' E 025°13'1 1.5
2015-Mar-20 21:33N 60°13' E 025°12'0 0.0
2015-Mar-20 20:30N 60°13' E 025°12'0 0.0
2015-Mar-20 19:33N 60°13' E 025°12'0 0.0
2015-Mar-20 18:33N 60°13' E 025°12'0 0.0
2015-Mar-20 17:30N 60°13' E 025°12'0 0.0
2015-Mar-20 16:33N 60°13' E 025°12'8 7.7
2015-Mar-20 15:33N 60°05' E 025°11'1615.9
2015-Mar-20 14:31N 59°52' E 024°51'2218.8
2015-Mar-20 13:20N 59°42' E 024°12'1519.4
2015-Mar-20 12:33N 59°38' E 023°43'  
Track history (hours):
 
Tides and Currents Weather Stations Pressure Air Temp Water Temp Dewpoint Dewpoint Depression Visibility Wind Speed Wind Dir Waves Ship Positions

Finnhawk

Last reported at 2015-Mar-30 04:30 UTC. Time now 2015-Mar-30 12:57 UTC.
Position N 55°34' E 006°37'.

Length 163 m; draft 6.8 m.

Type: Ship. MMSI: 230007000.

Date/timePositionNaut miles runAvg speedWind from/ knotsBaromVisibWave heightAir tempDewpointWater temp
2015-Mar-30 04:30N 55°34' E 006°37'7918.6
2015-Mar-30 00:17N 54°26' E 005°27'1418.7
2015-Mar-29 23:33N 54°15' E 005°15'1817.6
2015-Mar-29 22:33N 53°58' E 005°05'2018.4
2015-Mar-29 21:27N 53°39' E 004°52'5117.7
2015-Mar-29 18:33N 52°53' E 004°16'6017.2
2015-Mar-29 15:03N 52°02' E 003°24'917.8
2015-Mar-29 14:33N 51°53' E 003°21'1413.5
2015-Mar-29 13:33N 51°39' E 003°20'1313.4
2015-Mar-29 12:33N 51°28' E 003°31'10 9.5
2015-Mar-29 11:33N 51°23' E 003°44'1211.9
2015-Mar-29 10:34N 51°23' E 004°03'1111.3
2015-Mar-29 09:33N 51°17' E 004°19'2 2.4
2015-Mar-29 08:33N 51°16' E 004°16'2 2.0
2015-Mar-29 07:31N 51°17' E 004°13'0 0.0
2015-Mar-29 06:31N 51°17' E 004°13'0 0.0
2015-Mar-29 05:31N 51°17' E 004°13'0 0.0
2015-Mar-29 04:28N 51°17' E 004°13'0 0.0
2015-Mar-29 03:31N 51°17' E 004°13'0 0.0
2015-Mar-29 02:31N 51°17' E 004°13'0 0.0
2015-Mar-29 01:28N 51°17' E 004°13'0 0.0
2015-Mar-29 00:31N 51°17' E 004°13'0 0.0
2015-Mar-28 23:28N 51°17' E 004°13'0 0.0
2015-Mar-28 22:28N 51°17' E 004°13'0 0.0
2015-Mar-28 21:28N 51°17' E 004°13'0 0.1
2015-Mar-28 20:33N 51°17' E 004°13'2 2.3
2015-Mar-28 19:34N 51°16' E 004°17'2 2.2
2015-Mar-28 18:34N 51°18' E 004°17'7 6.7
2015-Mar-28 17:33N 51°24' E 004°12'9 9.0
2015-Mar-28 16:33N 51°23' E 003°57'1111.0
2015-Mar-28 15:33N 51°26' E 003°40'1110.7
2015-Mar-28 14:33N 51°32' E 003°25'1612.7
2015-Mar-28 13:19N 51°46' E 003°14'8 9.4
2015-Mar-28 12:28N 51°53' E 003°18'1211.1
2015-Mar-28 11:22N 52°05' E 003°22'1312.4
2015-Mar-28 10:20N 52°17' E 003°31'1012.5
2015-Mar-28 09:32N 52°23' E 003°44'1212.0
2015-Mar-28 08:33N 52°25' E 004°03'1515.1
2015-Mar-28 07:33N 52°28' E 004°28'5 5.4
2015-Mar-28 06:33N 52°28' E 004°36'4 4.1
2015-Mar-28 05:34N 52°26' E 004°42'5 5.0
2015-Mar-28 04:33N 52°24' E 004°50'0 0.0
2015-Mar-28 03:32N 52°24' E 004°50'0 0.0
2015-Mar-28 02:32N 52°24' E 004°50'0 0.0
2015-Mar-28 01:32N 52°24' E 004°50'0 0.0
2015-Mar-28 00:29N 52°24' E 004°50'0 0.0
2015-Mar-27 23:32N 52°24' E 004°50'0 0.0
2015-Mar-27 22:32N 52°24' E 004°50'0 0.0
2015-Mar-27 21:32N 52°24' E 004°50'0 0.0
2015-Mar-27 20:33N 52°24' E 004°50'5 5.0
2015-Mar-27 19:34N 52°26' E 004°43'4 4.2
2015-Mar-27 18:33N 52°28' E 004°36'6 6.1
2015-Mar-27 17:33N 52°28' E 004°26'1514.8
2015-Mar-27 16:33N 52°28' E 004°02'7017.1
2015-Mar-27 12:27N 51°50' E 002°25'1618.4
2015-Mar-27 11:33N 51°41' E 002°03'1919.0
2015-Mar-27 10:34N 51°30' E 001°38'1414.2
2015-Mar-27 09:34N 51°29' E 001°16'1918.6
2015-Mar-27 08:33N 51°29' E 000°46'1615.7
2015-Mar-27 07:33N 51°27' E 000°21'1 0.5
2015-Mar-27 06:33N 51°27' E 000°21'0 0.0
2015-Mar-27 05:34N 51°27' E 000°21'0 0.0
2015-Mar-27 04:33N 51°27' E 000°21'0 0.0
2015-Mar-27 03:32N 51°27' E 000°21'0 0.0
2015-Mar-27 02:34N 51°27' E 000°21'0 0.0
2015-Mar-27 01:34N 51°27' E 000°21'0 0.0
2015-Mar-27 00:33N 51°27' E 000°21'0 0.0
2015-Mar-26 23:28N 51°27' E 000°21'0 0.0
2015-Mar-26 22:34N 51°27' E 000°21'0 0.0
2015-Mar-26 21:34N 51°27' E 000°21'0 0.0
2015-Mar-26 20:34N 51°27' E 000°21'0 0.0
2015-Mar-26 19:33N 51°27' E 000°21'1 0.7
2015-Mar-26 18:34N 51°27' E 000°20'5 5.0
2015-Mar-26 17:33N 51°29' E 000°28'1615.6
2015-Mar-26 16:34N 51°29' E 000°53'1716.9
2015-Mar-26 15:33N 51°29' E 001°20'1211.6
2015-Mar-26 14:33N 51°32' E 001°38'1515.4
2015-Mar-26 13:34N 51°47' E 001°43'1716.9
2015-Mar-26 12:34N 52°04' E 001°48'1717.1
2015-Mar-26 11:34N 52°20' E 001°53'2017.1
2015-Mar-26 10:24N 52°40' E 002°02'1315.1
2015-Mar-26 09:34N 52°50' E 001°49'1717.2
2015-Mar-26 08:34N 52°58' E 001°24'3916.4
2015-Mar-26 06:10N 53°23' E 000°34'1016.9
2015-Mar-26 05:33N 53°32' E 000°24'1212.4
2015-Mar-26 04:34N 53°36' E 000°04'9 9.0
2015-Mar-26 03:31N 53°38' W 000°11'0 0.4
2015-Mar-26 02:31N 53°38' W 000°12'0 0.0
2015-Mar-26 01:31N 53°38' W 000°12'0 0.0
2015-Mar-26 00:31N 53°38' W 000°12'0 0.0
2015-Mar-25 23:31N 53°38' W 000°12'0 0.4
2015-Mar-25 22:34N 53°38' W 000°11'2 2.1
2015-Mar-25 21:33N 53°38' W 000°08'1413.6
2015-Mar-25 20:34N 53°33' E 000°14'1514.9
2015-Mar-25 19:33N 53°43' E 000°33'37517.8
2015-Mar-24 22:33N 57°28' E 009°22'2718.0
2015-Mar-24 21:05N 57°42' E 010°05'917.9
2015-Mar-24 20:33N 57°45' E 010°22'1817.7
2015-Mar-24 19:33N 57°44' E 010°55'1918.9
2015-Mar-24 18:33N 57°31' E 011°20'1918.5
2015-Mar-24 17:33N 57°15' E 011°36'1919.5
2015-Mar-24 16:33N 56°56' E 011°47'1918.9
2015-Mar-24 15:33N 56°39' E 011°59'1818.4
2015-Mar-24 14:33N 56°22' E 012°13'1818.1
2015-Mar-24 13:33N 56°07' E 012°32'1515.0
2015-Mar-24 12:33N 55°54' E 012°44'1414.2
2015-Mar-24 11:33N 55°40' E 012°42'1111.5
2015-Mar-24 10:33N 55°28' E 012°43'1312.7
2015-Mar-24 09:33N 55°16' E 012°51'1817.9
2015-Mar-24 08:33N 55°15' E 013°22'1817.9
2015-Mar-24 07:33N 55°14' E 013°53'1716.9
2015-Mar-24 06:33N 55°17' E 014°22'1817.7
2015-Mar-24 05:34N 55°29' E 014°44'1817.9
2015-Mar-24 04:33N 55°39' E 015°11'11916.6
2015-Mar-23 21:25N 57°11' E 017°27'23315.6
2015-Mar-23 06:28N 59°37' E 023°16'1616.3
2015-Mar-23 05:29N 59°41' E 023°46'1516.4
2015-Mar-23 04:33N 59°45' E 024°15'5716.8
2015-Mar-23 01:10N 59°57' E 026°06'1016.5
2015-Mar-23 00:33N 59°60' E 026°25'11314.1
2015-Mar-22 16:33N 59°53' E 030°10'2 1.5
2015-Mar-22 15:28N 59°53' E 030°13'0 0.0
2015-Mar-22 14:31N 59°53' E 030°13'0 0.0
2015-Mar-22 13:31N 59°53' E 030°13'0 0.0
2015-Mar-22 12:31N 59°53' E 030°13'0 0.0
2015-Mar-22 11:31N 59°53' E 030°13'0 0.0
2015-Mar-22 10:31N 59°53' E 030°13'0 0.0
2015-Mar-22 09:31N 59°53' E 030°13'0 0.0
2015-Mar-22 08:31N 59°53' E 030°13'0 0.0
2015-Mar-22 07:31N 59°53' E 030°13'0 0.0
2015-Mar-22 06:28N 59°53' E 030°13'0 0.0
2015-Mar-22 05:31N 59°53' E 030°13'0 0.0
2015-Mar-22 04:33N 59°53' E 030°13'1 0.9
2015-Mar-22 03:34N 59°53' E 030°11'8814.7
2015-Mar-21 21:33N 60°14' E 027°19'1514.8
2015-Mar-21 20:34N 60°24' E 026°59'5 5.3
2015-Mar-21 19:33N 60°29' E 026°57'0 0.0
2015-Mar-21 18:18N 60°29' E 026°57'0 0.0
2015-Mar-21 17:33N 60°29' E 026°57'0 0.0
2015-Mar-21 16:33N 60°29' E 026°57'0 0.0
2015-Mar-21 15:33N 60°29' E 026°57'0 0.0
2015-Mar-21 14:33N 60°29' E 026°57'0 0.0
2015-Mar-21 13:33N 60°29' E 026°57'0 0.0
2015-Mar-21 12:33N 60°29' E 026°57'0 0.0
2015-Mar-21 11:33N 60°29' E 026°57'0 0.0
2015-Mar-21 10:33N 60°29' E 026°57'0 0.0
2015-Mar-21 09:33N 60°29' E 026°57'0 0.0
2015-Mar-21 08:33N 60°29' E 026°57'0 0.0
2015-Mar-21 07:33N 60°29' E 026°57'0 0.0
2015-Mar-21 06:24N 60°29' E 026°57'0 0.0
2015-Mar-21 05:33N 60°29' E 026°57'0 0.0
2015-Mar-21 04:33N 60°29' E 026°57'0 0.0
2015-Mar-21 03:33N 60°29' E 026°57'7 6.6
2015-Mar-21 02:33N 60°23' E 026°50'1615.8
2015-Mar-21 01:33N 60°14' E 026°25'3815.9
2015-Mar-20 23:09N 60°03' E 025°11'913.5
2015-Mar-20 22:30N 60°12' E 025°13'1 1.5
2015-Mar-20 21:33N 60°13' E 025°12'0 0.0
2015-Mar-20 20:30N 60°13' E 025°12'0 0.0
2015-Mar-20 19:33N 60°13' E 025°12'0 0.0
2015-Mar-20 18:33N 60°13' E 025°12'0 0.0
2015-Mar-20 17:30N 60°13' E 025°12'0 0.0
2015-Mar-20 16:33N 60°13' E 025°12'8 7.7
2015-Mar-20 15:33N 60°05' E 025°11'1615.9
2015-Mar-20 14:31N 59°52' E 024°51'2218.8
2015-Mar-20 13:20N 59°42' E 024°12'1519.4
2015-Mar-20 12:33N 59°38' E 023°43'  

Dump ship's entire track history